Abakan, Russia

3:06 AM KRAT on July 23, 2014 (GMT +0800)
Abakan (UNAA) Elev 804 ft | 53.74 °N, 91.39 °E | Change Station

Current weather conditions updated 36 minutes ago

Mostly Cloudy
Mostly Cloudy
63 °F
Feels Like 63 °F
N
0
Wind Variable Wind from North

Today is forecast to be nearly the same temperature as yesterday.

Today
High -- | Low -- °F
--% Chance of Precip.
Yesterday
High -- | Low -- °F
Precip. -- in
5:54 AM 10:06 PM
Waning Crescent, 15% visible
Pressure 29.68 in
Visibility 6.2 miles
Clouds Scattered Clouds 3000 ft
Mostly Cloudy 20000 ft
Dew Point 57 °F
Humidity 82%
Rainfall 0.00 in
Snow Depth Not available.
UV 0 out of 12
Pollen Not available.
Air Quality Not available.
Flu Activity Not available.
METAR UNAA 221830Z 00000MPS 9999 SCT030CB BKN200 17/14 Q1005 NOSIG RMK QFE731 20290055

More Conditions Fewer Conditions

Pressure 29.68 in
Visibility 6.2 miles
Clouds Scattered Clouds 3000 ft
Mostly Cloudy 20000 ft
Dew Point 57 °F
Humidity 82%
Rainfall 0.00 in
Snow Depth Not available.
UV 0 out of 12
Pollen Not available.
Air Quality Not available.
Flu Activity Not available.
METAR UNAA 221830Z 00000MPS 9999 SCT030CB BKN200 17/14 Q1005 NOSIG RMK QFE731 20290055

More Conditions Fewer Conditions

10-Day Weather Forecast

Almanac

Astronomy

Jul. 23, 2014 Rise Set
Actual Time 5:54 AM KRAT 10:06 PM KRAT
Civil Twilight 5:07 AM KRAT 10:53 PM KRAT
Nautical Twilight 3:57 AM KRAT 12:02 AM KRAT
Astronomical Twilight 2:33 AM KRAT 1:28 AM KRAT
Moon 2:55 AM KRAT (7/23) 7:06 PM KRAT (7/23)
Length of Visible Light 17h 46m
Length of Day
16h 12m
Tomorrow will be 3m 1s shorter.
Waning Crescent, 15% of the Moon is Illuminated
Jul 22
Waning Crescent
Jul 26
New
Aug 3
First Quarter
Aug 10
Full
Aug 17
Last Quarter

Yesterday's Extremes

Country Highs Country Lows

Community

WunderPhotos

Upload Photos

1,736,333 photos uploaded!

Nearby

Snow Depth

Not available.

Earthquake Activity

City Distance Mag. Time & Date
No recent earthquake activity has been reported nearby.
Minimum magnitude displayed is 2.5.

Coastal Water Temperatures

Place Temperature
No Stations Reporting

Nearby Weather Stations

There are no personal weather stations in this area.